sensor_id;sensor_type;location;lat;lon;timestamp;pressure;altitude;pressure_sealevel;temperature;humidity
29315;BME280;16320;53.954;9.506;2023-03-22T00:00:00;100699.47;;;8.84;100.00
29315;BME280;16320;53.954;9.506;2023-03-22T00:03:05;100696.78;;;8.85;100.00
29315;BME280;16320;53.954;9.506;2023-03-22T00:06:09;100688.00;;;8.86;100.00
29315;BME280;16320;53.954;9.506;2023-03-22T00:09:14;100680.09;;;8.88;100.00
29315;BME280;16320;53.954;9.506;2023-03-22T00:12:19;100672.16;;;8.89;100.00
29315;BME280;16320;53.954;9.506;2023-03-22T00:15:24;100673.25;;;8.84;100.00
29315;BME280;16320;53.954;9.506;2023-03-22T00:18:28;100667.31;;;8.80;100.00
29315;BME280;16320;53.954;9.506;2023-03-22T00:21:32;100665.47;;;8.82;100.00
29315;BME280;16320;53.954;9.506;2023-03-22T00:24:36;100656.84;;;8.80;100.00
29315;BME280;16320;53.954;9.506;2023-03-22T00:27:41;100656.72;;;8.83;100.00
29315;BME280;16320;53.954;9.506;2023-03-22T00:30:54;100658.56;;;8.81;100.00
29315;BME280;16320;53.954;9.506;2023-03-22T00:33:59;100650.69;;;8.81;100.00
29315;BME280;16320;53.954;9.506;2023-03-22T00:37:03;100653.19;;;8.84;100.00
29315;BME280;16320;53.954;9.506;2023-03-22T00:40:11;100651.59;;;8.80;100.00
29315;BME280;16320;53.954;9.506;2023-03-22T00:43:16;100645.41;;;8.83;100.00
29315;BME280;16320;53.954;9.506;2023-03-22T00:46:21;100640.84;;;8.86;100.00
29315;BME280;16320;53.954;9.506;2023-03-22T00:49:25;100637.34;;;8.87;100.00
29315;BME280;16320;53.954;9.506;2023-03-22T00:52:30;100636.31;;;8.90;100.00
29315;BME280;16320;53.954;9.506;2023-03-22T00:55:37;100639.16;;;8.85;100.00
29315;BME280;16320;53.954;9.506;2023-03-22T00:58:43;100631.16;;;8.88;100.00
29315;BME280;16320;53.954;9.506;2023-03-22T01:01:52;100616.53;;;8.84;100.00
29315;BME280;16320;53.954;9.506;2023-03-22T01:05:02;100611.41;;;8.81;100.00
29315;BME280;16320;53.954;9.506;2023-03-22T01:08:09;100611.56;;;8.78;100.00
29315;BME280;16320;53.954;9.506;2023-03-22T01:11:13;100605.34;;;8.81;100.00
29315;BME280;16320;53.954;9.506;2023-03-22T01:14:23;100602.63;;;8.82;100.00
29315;BME280;16320;53.954;9.506;2023-03-22T01:17:29;100600.94;;;8.81;100.00
29315;BME280;16320;53.954;9.506;2023-03-22T01:20:37;100599.38;;;8.77;100.00
29315;BME280;16320;53.954;9.506;2023-03-22T01:23:47;100597.03;;;8.71;100.00
29315;BME280;16320;53.954;9.506;2023-03-22T01:26:56;100597.69;;;8.76;100.00
29315;BME280;16320;53.954;9.506;2023-03-22T01:30:18;100586.72;;;8.68;100.00
29315;BME280;16320;53.954;9.506;2023-03-22T01:33:25;100580.69;;;8.66;100.00
29315;BME280;16320;53.954;9.506;2023-03-22T01:36:46;100569.50;;;8.62;100.00
29315;BME280;16320;53.954;9.506;2023-03-22T01:39:50;100568.66;;;8.61;100.00
29315;BME280;16320;53.954;9.506;2023-03-22T01:42:55;100566.97;;;8.60;100.00
29315;BME280;16320;53.954;9.506;2023-03-22T01:46:01;100572.13;;;8.62;100.00
29315;BME280;16320;53.954;9.506;2023-03-22T01:49:28;100572.06;;;8.64;100.00
29315;BME280;16320;53.954;9.506;2023-03-22T01:52:34;100567.66;;;8.64;100.00
29315;BME280;16320;53.954;9.506;2023-03-22T01:55:43;100556.06;;;8.70;100.00
29315;BME280;16320;53.954;9.506;2023-03-22T01:58:49;100563.94;;;8.70;100.00
29315;BME280;16320;53.954;9.506;2023-03-22T02:01:57;100555.88;;;8.74;100.00
29315;BME280;16320;53.954;9.506;2023-03-22T02:05:06;100546.28;;;8.73;100.00
29315;BME280;16320;53.954;9.506;2023-03-22T02:08:13;100545.31;;;8.76;100.00
29315;BME280;16320;53.954;9.506;2023-03-22T02:11:28;100536.81;;;8.71;100.00
29315;BME280;16320;53.954;9.506;2023-03-22T02:29:07;100519.75;;;8.81;100.00
29315;BME280;16320;53.954;9.506;2023-03-22T02:35:45;100523.28;;;8.80;100.00
29315;BME280;16320;53.954;9.506;2023-03-22T02:39:30;100521.28;;;8.85;100.00
29315;BME280;16320;53.954;9.506;2023-03-22T02:46:44;100515.84;;;8.90;100.00
29315;BME280;16320;53.954;9.506;2023-03-22T02:49:58;100529.56;;;8.95;100.00
29315;BME280;16320;53.954;9.506;2023-03-22T02:53:28;100522.78;;;8.91;100.00
29315;BME280;16320;53.954;9.506;2023-03-22T02:56:45;100521.63;;;8.96;100.00
29315;BME280;16320;53.954;9.506;2023-03-22T02:59:52;100519.63;;;9.02;100.00
29315;BME280;16320;53.954;9.506;2023-03-22T03:03:05;100512.72;;;9.01;100.00
29315;BME280;16320;53.954;9.506;2023-03-22T03:06:19;100516.09;;;9.03;100.00
29315;BME280;16320;53.954;9.506;2023-03-22T03:09:25;100514.38;;;9.02;100.00
29315;BME280;16320;53.954;9.506;2023-03-22T03:12:32;100501.22;;;9.03;100.00
29315;BME280;16320;53.954;9.506;2023-03-22T03:15:41;100507.31;;;9.04;100.00
29315;BME280;16320;53.954;9.506;2023-03-22T03:19:02;100496.84;;;9.04;100.00
29315;BME280;16320;53.954;9.506;2023-03-22T03:22:38;100495.00;;;9.06;100.00
29315;BME280;16320;53.954;9.506;2023-03-22T03:29:41;100498.38;;;9.08;100.00
29315;BME280;16320;53.954;9.506;2023-03-22T03:32:58;100497.31;;;9.12;100.00
29315;BME280;16320;53.954;9.506;2023-03-22T03:36:13;100489.31;;;9.15;100.00
29315;BME280;16320;53.954;9.506;2023-03-22T03:39:20;100496.38;;;9.13;100.00
29315;BME280;16320;53.954;9.506;2023-03-22T03:42:28;100492.16;;;9.10;100.00
29315;BME280;16320;53.954;9.506;2023-03-22T03:45:35;100478.97;;;9.12;100.00
29315;BME280;16320;53.954;9.506;2023-03-22T03:48:45;100482.66;;;9.08;100.00
29315;BME280;16320;53.954;9.506;2023-03-22T03:51:53;100479.13;;;9.09;100.00
29315;BME280;16320;53.954;9.506;2023-03-22T03:54:58;100482.81;;;9.05;100.00
29315;BME280;16320;53.954;9.506;2023-03-22T03:58:03;100473.88;;;9.09;100.00
29315;BME280;16320;53.954;9.506;2023-03-22T04:01:07;100479.13;;;9.09;100.00
29315;BME280;16320;53.954;9.506;2023-03-22T04:04:11;100485.34;;;9.06;100.00
29315;BME280;16320;53.954;9.506;2023-03-22T04:07:17;100471.78;;;8.98;100.00
29315;BME280;16320;53.954;9.506;2023-03-22T04:10:21;100472.72;;;8.97;100.00
29315;BME280;16320;53.954;9.506;2023-03-22T04:13:26;100470.03;;;8.98;100.00
29315;BME280;16320;53.954;9.506;2023-03-22T04:16:31;100469.25;;;8.96;100.00
29315;BME280;16320;53.954;9.506;2023-03-22T04:19:37;100472.00;;;8.93;100.00
29315;BME280;16320;53.954;9.506;2023-03-22T04:22:41;100464.31;;;8.90;100.00
29315;BME280;16320;53.954;9.506;2023-03-22T04:25:48;100464.16;;;8.93;100.00
29315;BME280;16320;53.954;9.506;2023-03-22T04:28:53;100457.38;;;8.89;100.00
29315;BME280;16320;53.954;9.506;2023-03-22T04:31:58;100455.97;;;8.82;100.00
29315;BME280;16320;53.954;9.506;2023-03-22T04:35:05;100459.38;;;8.84;100.00
29315;BME280;16320;53.954;9.506;2023-03-22T04:38:09;100449.75;;;8.85;100.00
29315;BME280;16320;53.954;9.506;2023-03-22T04:41:13;100454.28;;;8.81;100.00
29315;BME280;16320;53.954;9.506;2023-03-22T04:44:18;100455.13;;;8.82;100.00
29315;BME280;16320;53.954;9.506;2023-03-22T04:47:25;100459.53;;;8.81;100.00
29315;BME280;16320;53.954;9.506;2023-03-22T04:50:30;100451.13;;;8.74;100.00
29315;BME280;16320;53.954;9.506;2023-03-22T04:53:35;100447.34;;;8.80;100.00
29315;BME280;16320;53.954;9.506;2023-03-22T04:56:42;100437.56;;;8.84;100.00
29315;BME280;16320;53.954;9.506;2023-03-22T04:59:47;100438.56;;;8.81;100.00
29315;BME280;16320;53.954;9.506;2023-03-22T05:02:52;100437.00;;;8.77;100.00
29315;BME280;16320;53.954;9.506;2023-03-22T05:06:01;100441.25;;;8.79;100.00
29315;BME280;16320;53.954;9.506;2023-03-22T05:09:06;100443.66;;;8.84;100.00
29315;BME280;16320;53.954;9.506;2023-03-22T05:12:11;100450.72;;;8.82;100.00
29315;BME280;16320;53.954;9.506;2023-03-22T05:15:16;100441.97;;;8.83;100.00
29315;BME280;16320;53.954;9.506;2023-03-22T05:18:22;100444.66;;;8.82;100.00
29315;BME280;16320;53.954;9.506;2023-03-22T05:21:30;100458.59;;;8.82;100.00
29315;BME280;16320;53.954;9.506;2023-03-22T05:24:39;100455.97;;;8.82;100.00
29315;BME280;16320;53.954;9.506;2023-03-22T05:27:44;100452.56;;;8.80;100.00
29315;BME280;16320;53.954;9.506;2023-03-22T05:30:49;100448.03;;;8.84;100.00
29315;BME280;16320;53.954;9.506;2023-03-22T05:33:55;100458.69;;;8.81;100.00
29315;BME280;16320;53.954;9.506;2023-03-22T05:37:00;100440.09;;;8.85;100.00
29315;BME280;16320;53.954;9.506;2023-03-22T05:40:05;100440.97;;;8.86;100.00
29315;BME280;16320;53.954;9.506;2023-03-22T05:43:13;100433.03;;;8.87;100.00
29315;BME280;16320;53.954;9.506;2023-03-22T05:46:19;100433.81;;;8.89;100.00
29315;BME280;16320;53.954;9.506;2023-03-22T05:49:25;100429.56;;;8.87;100.00
29315;BME280;16320;53.954;9.506;2023-03-22T05:52:31;100429.47;;;8.88;100.00
29315;BME280;16320;53.954;9.506;2023-03-22T05:55:35;100429.19;;;8.94;100.00
29315;BME280;16320;53.954;9.506;2023-03-22T05:58:41;100428.50;;;8.91;100.00
29315;BME280;16320;53.954;9.506;2023-03-22T06:01:45;100423.78;;;8.97;100.00
29315;BME280;16320;53.954;9.506;2023-03-22T06:04:50;100416.69;;;9.00;100.00
29315;BME280;16320;53.954;9.506;2023-03-22T06:07:58;100414.84;;;9.02;100.00
29315;BME280;16320;53.954;9.506;2023-03-22T06:11:03;100428.44;;;9.10;100.00
29315;BME280;16320;53.954;9.506;2023-03-22T06:14:07;100421.03;;;9.18;100.00
29315;BME280;16320;53.954;9.506;2023-03-22T06:17:11;100415.78;;;9.18;100.00
29315;BME280;16320;53.954;9.506;2023-03-22T06:20:16;100408.47;;;9.25;100.00
29315;BME280;16320;53.954;9.506;2023-03-22T06:23:23;100407.97;;;9.34;100.00
29315;BME280;16320;53.954;9.506;2023-03-22T06:26:29;100391.00;;;9.41;100.00
29315;BME280;16320;53.954;9.506;2023-03-22T06:29:33;100392.69;;;9.42;100.00
29315;BME280;16320;53.954;9.506;2023-03-22T06:32:38;100396.94;;;9.45;100.00
29315;BME280;16320;53.954;9.506;2023-03-22T06:35:42;100402.03;;;9.48;100.00
29315;BME280;16320;53.954;9.506;2023-03-22T06:38:48;100398.28;;;9.52;100.00
29315;BME280;16320;53.954;9.506;2023-03-22T06:41:56;100410.50;;;9.53;100.00
29315;BME280;16320;53.954;9.506;2023-03-22T06:45:02;100406.09;;;9.53;100.00
29315;BME280;16320;53.954;9.506;2023-03-22T06:48:12;100402.38;;;9.58;100.00
29315;BME280;16320;53.954;9.506;2023-03-22T06:51:23;100394.75;;;9.53;100.00
29315;BME280;16320;53.954;9.506;2023-03-22T06:54:27;100396.47;;;9.54;100.00
29315;BME280;16320;53.954;9.506;2023-03-22T06:57:32;100390.13;;;9.58;100.00
29315;BME280;16320;53.954;9.506;2023-03-22T07:00:36;100384.13;;;9.56;100.00
29315;BME280;16320;53.954;9.506;2023-03-22T07:03:43;100370.00;;;9.59;100.00
29315;BME280;16320;53.954;9.506;2023-03-22T07:06:49;100362.66;;;9.65;100.00
29315;BME280;16320;53.954;9.506;2023-03-22T07:09:53;100370.59;;;9.64;100.00
29315;BME280;16320;53.954;9.506;2023-03-22T07:12:57;100362.50;;;9.68;100.00
29315;BME280;16320;53.954;9.506;2023-03-22T07:16:03;100356.31;;;9.69;100.00
29315;BME280;16320;53.954;9.506;2023-03-22T07:19:11;100352.00;;;9.68;100.00
29315;BME280;16320;53.954;9.506;2023-03-22T07:22:18;100354.09;;;9.78;100.00
29315;BME280;16320;53.954;9.506;2023-03-22T07:25:28;100344.41;;;9.80;100.00
29315;BME280;16320;53.954;9.506;2023-03-22T07:28:34;100341.34;;;9.87;100.00
29315;BME280;16320;53.954;9.506;2023-03-22T07:31:41;100331.88;;;9.85;100.00
29315;BME280;16320;53.954;9.506;2023-03-22T07:35:06;100315.81;;;9.91;100.00
29315;BME280;16320;53.954;9.506;2023-03-22T07:38:11;100319.28;;;9.92;100.00
29315;BME280;16320;53.954;9.506;2023-03-22T07:41:17;100313.78;;;9.96;100.00
29315;BME280;16320;53.954;9.506;2023-03-22T07:44:26;100312.72;;;9.99;100.00
29315;BME280;16320;53.954;9.506;2023-03-22T07:47:31;100287.78;;;10.07;100.00
29315;BME280;16320;53.954;9.506;2023-03-22T07:50:45;100280.56;;;10.11;100.00
29315;BME280;16320;53.954;9.506;2023-03-22T07:53:50;100262.13;;;10.13;100.00
29315;BME280;16320;53.954;9.506;2023-03-22T07:56:57;100265.31;;;10.18;100.00
29315;BME280;16320;53.954;9.506;2023-03-22T08:00:06;100251.44;;;10.16;100.00
29315;BME280;16320;53.954;9.506;2023-03-22T08:03:14;100250.41;;;10.18;100.00
29315;BME280;16320;53.954;9.506;2023-03-22T08:06:26;100254.13;;;10.30;100.00
29315;BME280;16320;53.954;9.506;2023-03-22T08:09:32;100247.06;;;10.47;100.00
29315;BME280;16320;53.954;9.506;2023-03-22T08:12:40;100238.28;;;10.62;100.00
29315;BME280;16320;53.954;9.506;2023-03-22T08:15:46;100237.38;;;10.77;100.00
29315;BME280;16320;53.954;9.506;2023-03-22T08:18:53;100234.66;;;10.79;100.00
29315;BME280;16320;53.954;9.506;2023-03-22T08:22:01;100234.56;;;10.80;100.00
29315;BME280;16320;53.954;9.506;2023-03-22T08:25:10;100226.69;;;10.80;100.00
29315;BME280;16320;53.954;9.506;2023-03-22T08:28:28;100227.16;;;10.87;100.00
29315;BME280;16320;53.954;9.506;2023-03-22T08:31:36;100224.81;;;10.97;100.00
29315;BME280;16320;53.954;9.506;2023-03-22T08:34:50;100236.69;;;11.03;100.00
29315;BME280;16320;53.954;9.506;2023-03-22T08:37:56;100233.06;;;11.05;100.00
29315;BME280;16320;53.954;9.506;2023-03-22T08:41:00;100235.50;;;11.08;100.00
29315;BME280;16320;53.954;9.506;2023-03-22T08:44:12;100224.31;;;11.05;100.00
29315;BME280;16320;53.954;9.506;2023-03-22T08:47:31;100224.72;;;11.13;100.00
29315;BME280;16320;53.954;9.506;2023-03-22T08:51:11;100233.06;;;11.20;100.00
29315;BME280;16320;53.954;9.506;2023-03-22T08:54:15;100231.63;;;11.28;100.00
29315;BME280;16320;53.954;9.506;2023-03-22T08:57:36;100228.34;;;11.39;100.00
29315;BME280;16320;53.954;9.506;2023-03-22T09:00:42;100206.25;;;11.42;100.00
29315;BME280;16320;53.954;9.506;2023-03-22T09:03:53;100218.00;;;11.36;100.00
29315;BME280;16320;53.954;9.506;2023-03-22T09:07:06;100219.59;;;11.24;100.00
29315;BME280;16320;53.954;9.506;2023-03-22T09:10:12;100220.84;;;11.18;100.00
29315;BME280;16320;53.954;9.506;2023-03-22T09:13:17;100222.34;;;11.23;100.00
29315;BME280;16320;53.954;9.506;2023-03-22T09:16:22;100223.81;;;11.27;100.00
29315;BME280;16320;53.954;9.506;2023-03-22T09:19:27;100215.19;;;11.39;100.00
29315;BME280;16320;53.954;9.506;2023-03-22T09:22:35;100218.34;;;11.44;100.00
29315;BME280;16320;53.954;9.506;2023-03-22T09:25:45;100226.78;;;11.49;100.00
29315;BME280;16320;53.954;9.506;2023-03-22T09:28:51;100234.31;;;11.56;100.00
29315;BME280;16320;53.954;9.506;2023-03-22T09:31:56;100219.59;;;11.66;100.00
29315;BME280;16320;53.954;9.506;2023-03-22T09:35:09;100204.13;;;11.61;100.00
29315;BME280;16320;53.954;9.506;2023-03-22T09:38:30;100211.94;;;11.48;100.00
29315;BME280;16320;53.954;9.506;2023-03-22T09:41:51;100189.59;;;11.56;100.00
29315;BME280;16320;53.954;9.506;2023-03-22T09:44:57;100194.56;;;11.60;100.00
29315;BME280;16320;53.954;9.506;2023-03-22T09:48:25;100183.84;;;11.76;100.00
29315;BME280;16320;53.954;9.506;2023-03-22T09:51:49;100183.06;;;11.88;100.00
29315;BME280;16320;53.954;9.506;2023-03-22T09:54:54;100179.88;;;11.98;100.00
29315;BME280;16320;53.954;9.506;2023-03-22T09:58:23;100177.63;;;11.92;100.00
29315;BME280;16320;53.954;9.506;2023-03-22T10:01:47;100182.50;;;11.98;100.00
29315;BME280;16320;53.954;9.506;2023-03-22T10:14:44;100188.91;;;11.94;100.00
29315;BME280;16320;53.954;9.506;2023-03-22T10:17:54;100188.81;;;11.95;100.00
29315;BME280;16320;53.954;9.506;2023-03-22T10:21:10;100187.78;;;11.83;100.00
29315;BME280;16320;53.954;9.506;2023-03-22T10:24:30;100202.09;;;11.79;100.00
29315;BME280;16320;53.954;9.506;2023-03-22T10:27:52;100201.34;;;11.77;100.00
29315;BME280;16320;53.954;9.506;2023-03-22T10:30:58;100197.13;;;11.75;100.00
29315;BME280;16320;53.954;9.506;2023-03-22T10:34:29;100189.13;;;11.76;100.00
29315;BME280;16320;53.954;9.506;2023-03-22T10:37:44;100184.34;;;11.83;100.00
29315;BME280;16320;53.954;9.506;2023-03-22T10:41:01;100193.44;;;11.92;100.00
29315;BME280;16320;53.954;9.506;2023-03-22T10:44:21;100185.44;;;11.93;100.00
29315;BME280;16320;53.954;9.506;2023-03-22T10:47:57;100192.31;;;11.81;100.00
29315;BME280;16320;53.954;9.506;2023-03-22T10:56:17;100183.63;;;11.94;100.00
29315;BME280;16320;53.954;9.506;2023-03-22T11:00:09;100191.69;;;11.90;100.00
29315;BME280;16320;53.954;9.506;2023-03-22T11:11:04;100168.97;;;11.89;100.00
29315;BME280;16320;53.954;9.506;2023-03-22T11:14:30;100166.50;;;12.01;100.00
29315;BME280;16320;53.954;9.506;2023-03-22T11:17:43;100152.63;;;12.12;100.00
29315;BME280;16320;53.954;9.506;2023-03-22T11:21:05;100150.00;;;12.24;100.00
29315;BME280;16320;53.954;9.506;2023-03-22T11:24:14;100152.31;;;12.29;100.00
